This demonstration page uses our WeatherBlox Daily Observations layout. Learn more.

Left ArrowRight Arrow

38.83388, -104.82136

Hourly Observations for December 8, 2022

Temp ( °F °C ) Dew Point ( °F °C ) Humidity (%) Winds ( mph kmh ) Pressure ( in mb ) Visibility ( mi km ) Precip ( " mm )
12:55 am 00:55 Clear 28 -2.5 22 -5.3 81 81 S 10 17 29.31 993 10 16 0.00 0.00
1:55 am 01:55 Mostly Clear 27 -3 27 -3 100 100 S 5 7 29.23 990 10 16 0.00 0.00
2:55 am 02:55 Clear 29 -1.8 23 -5.1 78 78 NW 3 6 29.18 988 10 16 0.00 0.00
3:55 am 03:55 Clear 39 4.1 18 -7.7 42 42 E 8 13 29.53 1000 10 16 0.00 0.00
4:55 am 04:55 Clear 39 4 20 -6.9 45 45 E 8 13 N/A 10 16 0.00 0.00
5:08 am 05:08 Clear 39 4 21 -6 48 48 SSE 12 19 N/A 10 16 0.00 0.00
5:15 am 05:15 Clear 39 4 19 -7 44 44 N 13 20 N/A 10 16 0.00 0.00
5:34 am 05:34 Clear 37 3 19 -7 48 48 SSE 12 19 N/A 10 16 0.00 0.00
5:55 am 05:55 Clear 38 3.4 18 -7.7 44 44 SSW 9 15 N/A 10 16 0.00 0.00
6:55 am 06:55 Clear 36 2 5 -15.1 27 27 E 9 15 N/A 10 16 0.00 0.00
7:55 am 07:55 Sunny 37 2.6 -2 -18.8 19 19 N 5 7 N/A 10 16 0.00 0.00
8:55 am 08:55 Sunny 40 4.6 0 -17.7 18 18 ESE 5 7 N/A 10 16 0.00 0.00
9:55 am 09:55 Sunny 42 5.5 0 -17.7 17 17 SE 5 7 N/A 10 16 0.00 0.00
10:55 am 10:55 Sunny 43 6.3 0 -17.7 16 16 E 6 9 N/A 10 16 0.00 0.00
11:55 am 11:55 Sunny 42 5.3 -1 -18.5 16 16 NE 5 7 N/A 10 16 0.00 0.00
12:55 pm 12:55 Sunny 43 6.3 0 -17.7 16 16 NNE 9 15 N/A 10 16 0.00 0.00
1:55 pm 13:55 Sunny 44 6.9 -2 -18.8 14 14 ESE 5 7 N/A 10 16 0.00 0.00
2:55 pm 14:55 Sunny 41 5.1 -5 -20.3 14 14 N 5 7 N/A 10 16 0.00 0.00
3:55 pm 15:55 Sunny 37 2.7 -2 -18.7 19 19 WNW 6 9 N/A 10 16 0.00 0.00
4:55 pm 16:55 Clear 36 2.4 -6 -20.9 16 16 Calm N/A 10 16 0.00 0.00
5:55 pm 17:55 Clear 38 3.5 -5 -20.8 15 15 SSW 8 13 N/A 10 16 0.00 0.00
6:55 pm 18:55 Clear 37 2.7 -7 -21.4 15 15 S 8 13 N/A 10 16 0.00 0.00
7:55 pm 19:55 Clear 36 2.3 -9 -22.5 14 14 SSW 9 15 N/A 10 16 0.00 0.00
8:55 pm 20:55 Clear 36 2 -8 -22 15 15 SSW 6 9 N/A 10 16 0.00 0.00
9:55 pm 21:55 Clear 31 -0.6 -5 -20.8 20 20 Calm N/A 10 16 0.00 0.00
10:55 pm 22:55 Clear 31 -0.8 -4 -19.9 22 22 Calm N/A 10 16 0.00 0.00
11:55 pm 23:55 Clear 29 -1.5 -4 -20 23 23 Calm N/A 10 16 0.00 0.00

Powered by AerisWeather